Time;durP1;ratioP1;P1;durP2;ratioP2;P2;SDS_P1;SDS_P2;PMS_P1;PMS_P2;Temp;Humidity;BMP_temperature;BMP_pressure;BME280_temperature;BME280_humidity;BME280_pressure;Samples;Min_cycle;Max_cycle;Signal;HPM_P1;HPM_P2
2022/05/02 00:01:59;;;;;;;76.60;40.80;;;;;;;10.00;58.98;98881.63;108313;1274;22535;-70
2022/05/02 00:04:26;;;;;;;75.80;42.00;;;;;;;9.95;59.02;98883.82;108304;1274;25520;-70
2022/05/02 00:06:53;;;;;;;79.90;43.60;;;;;;;9.88;59.11;98882.30;108269;1274;22537;-71
2022/05/02 00:09:20;;;;;;;81.10;46.30;;;;;;;9.82;59.43;98881.98;108299;1274;25362;-71
2022/05/02 00:11:47;;;;;;;80.90;45.20;;;;;;;9.78;58.79;98880.96;108294;1274;23280;-73
2022/05/02 00:14:14;;;;;;;90.30;46.10;;;;;;;9.74;58.73;98873.25;108304;1274;22699;-73
2022/05/02 00:16:41;;;;;;;95.50;49.90;;;;;;;9.71;59.01;98872.67;108338;1274;25244;-73
2022/05/02 00:19:08;;;;;;;95.90;49.40;;;;;;;9.70;58.86;98870.47;108291;1274;22714;-70
2022/05/02 00:21:35;;;;;;;84.80;49.40;;;;;;;9.69;59.03;98871.21;108327;1274;22607;-70
2022/05/02 00:24:02;;;;;;;87.70;48.00;;;;;;;9.68;59.25;98870.43;108330;1274;22613;-71
2022/05/02 00:26:29;;;;;;;98.20;53.80;;;;;;;9.66;58.90;98869.48;108337;1274;22673;-71
2022/05/02 00:28:56;;;;;;;103.20;61.30;;;;;;;9.65;59.29;98867.86;108331;1274;22653;-78
2022/05/02 00:31:23;;;;;;;91.40;52.60;;;;;;;9.64;59.27;98869.79;108271;1273;22543;-72
2022/05/02 00:33:50;;;;;;;91.10;51.00;;;;;;;9.66;59.62;98866.34;108296;1273;22736;-70
2022/05/02 00:36:17;;;;;;;90.80;53.90;;;;;;;9.68;59.99;98867.12;108296;1274;22548;-71
2022/05/02 00:38:44;;;;;;;97.10;55.20;;;;;;;9.68;60.59;98866.23;108361;1274;22567;-71
2022/05/02 00:41:11;;;;;;;97.90;54.70;;;;;;;9.67;60.47;98867.17;108299;1274;22725;-71
2022/05/02 00:43:41;;;;;;;92.10;54.30;;;;;;;9.66;60.54;98865.66;108294;1272;22729;-71
2022/05/02 00:46:20;;;;;;;89.80;53.10;;;;;;;9.64;60.50;98863.91;108296;1274;22604;-71
2022/05/02 00:48:47;;;;;;;91.60;51.90;;;;;;;9.62;60.39;98868.19;108280;1274;22561;-70
2022/05/02 00:51:16;;;;;;;98.30;55.00;;;;;;;9.58;60.74;98864.55;108311;1274;22562;-70
2022/05/02 00:53:46;;;;;;;115.90;64.40;;;;;;;9.57;60.47;98867.27;108319;1274;22550;-74
2022/05/02 00:56:16;;;;;;;115.10;62.20;;;;;;;9.54;60.35;98868.13;108322;1274;22586;-71
2022/05/02 00:58:43;;;;;;;87.80;48.40;;;;;;;9.49;60.30;98866.30;108303;1274;22627;-70
2022/05/02 01:01:10;;;;;;;76.80;38.70;;;;;;;9.46;60.21;98869.77;108323;1274;22542;-71
2022/05/02 01:03:37;;;;;;;62.20;32.10;;;;;;;9.50;61.09;98871.32;108305;1274;22600;-70
2022/05/02 01:08:52;;;;;;;79.40;39.40;;;;;;;9.50;62.79;98867.11;108309;1274;22689;-71
2022/05/02 01:11:20;;;;;;;67.30;36.70;;;;;;;9.49;62.56;98865.81;108359;1274;22556;-71
2022/05/02 01:13:49;;;;;;;66.80;37.30;;;;;;;9.48;62.52;98865.36;108314;1273;22664;-70
2022/05/02 01:16:17;;;;;;;60.40;37.10;;;;;;;9.48;62.20;98860.67;108316;1274;23175;-70
2022/05/02 01:18:46;;;;;;;66.00;40.60;;;;;;;9.47;62.39;98854.45;108275;1271;22525;-71
2022/05/02 01:21:15;;;;;;;71.10;41.80;;;;;;;9.47;62.14;98856.72;108483;1271;25393;-71
2022/05/02 01:23:46;;;;;;;68.40;39.90;;;;;;;9.46;61.74;98859.17;108510;1271;22697;-71
2022/05/02 01:26:14;;;;;;;74.90;42.80;;;;;;;9.45;62.91;98858.35;108525;1271;22721;-76
2022/05/02 01:28:43;;;;;;;83.10;45.70;;;;;;;9.44;61.95;98853.76;108536;1271;22682;-72
2022/05/02 01:31:11;;;;;;;70.60;42.00;;;;;;;9.42;61.75;98849.13;108531;1271;22636;-72
2022/05/02 01:33:38;;;;;;;65.60;38.80;;;;;;;9.46;62.23;98848.77;108533;1271;22604;-77
2022/05/02 01:36:05;;;;;;;63.40;38.80;;;;;;;9.47;63.09;98848.72;108477;1274;22529;-75
2022/05/02 01:38:33;;;;;;;72.80;39.90;;;;;;;9.46;63.52;98843.70;108521;1271;24288;-73
2022/05/02 01:41:00;;;;;;;69.00;39.20;;;;;;;9.43;63.38;98841.95;108528;1271;22617;-74
2022/05/02 01:43:27;;;;;;;86.10;48.40;;;;;;;9.41;63.00;98840.33;108511;1271;25350;-73
2022/05/02 01:45:54;;;;;;;107.80;60.80;;;;;;;9.40;62.72;98842.15;108522;1271;24239;-87
2022/05/02 01:48:21;;;;;;;101.50;55.60;;;;;;;9.37;62.70;98841.94;108418;1271;22522;-72
2022/05/02 01:50:49;;;;;;;96.60;52.30;;;;;;;9.37;62.06;98838.52;108317;1271;23195;-71
2022/05/02 01:53:16;;;;;;;92.70;50.10;;;;;;;9.35;62.21;98837.23;108323;1271;22658;-71
2022/05/02 01:55:43;;;;;;;83.50;46.60;;;;;;;9.31;62.57;98836.54;108355;1268;22703;-71
2022/05/02 01:58:10;;;;;;;70.40;42.50;;;;;;;9.28;62.37;98836.72;108371;1271;23428;-71
2022/05/02 02:00:37;;;;;;;65.50;36.50;;;;;;;9.28;62.62;98839.55;108355;1271;26659;-71
2022/05/02 02:03:04;;;;;;;69.90;39.60;;;;;;;9.23;63.34;98840.66;108343;1271;23377;-71
2022/05/02 02:05:50;;;;;;;91.30;44.70;;;;;;;9.15;63.50;98844.41;108331;1271;22553;-71
2022/05/02 02:08:21;;;;;;;93.60;45.30;;;;;;;9.08;63.51;98845.52;108335;1271;22542;-72
2022/05/02 02:10:50;;;;;;;82.70;41.60;;;;;;;9.03;63.22;98845.79;108363;1271;22551;-71
2022/05/02 02:13:17;;;;;;;115.10;52.00;;;;;;;8.98;63.25;98850.58;108371;1271;23245;-72
2022/05/02 02:15:45;;;;;;;115.40;51.40;;;;;;;8.94;63.44;98850.11;108317;1271;22541;-72
2022/05/02 02:18:13;;;;;;;88.00;41.70;;;;;;;8.93;63.44;98850.02;108338;1271;22528;-72
2022/05/02 02:20:47;;;;;;;61.90;33.20;;;;;;;8.96;63.61;98847.22;108270;1274;22800;-72
2022/05/02 02:23:15;;;;;;;50.80;28.60;;;;;;;8.98;64.12;98849.19;108455;1274;22667;-72
2022/05/02 02:25:43;;;;;;;56.00;32.60;;;;;;;8.98;65.08;98850.73;108293;1273;22848;-79
2022/05/02 02:28:12;;;;;;;57.00;34.90;;;;;;;8.97;65.19;98844.91;108295;1274;22535;-71
2022/05/02 02:30:39;;;;;;;60.10;34.90;;;;;;;8.97;64.82;98844.73;108283;1274;22563;-71
2022/05/02 02:33:06;;;;;;;62.10;34.90;;;;;;;8.97;64.68;98846.64;108326;1274;22554;-71
2022/05/02 02:35:33;;;;;;;61.50;34.20;;;;;;;8.96;64.71;98845.48;108303;1274;22702;-71
2022/05/02 02:38:00;;;;;;;57.70;33.70;;;;;;;8.95;64.62;98844.85;108311;1274;22670;-71
2022/05/02 02:40:27;;;;;;;57.40;34.20;;;;;;;8.93;64.53;98846.35;108338;1274;24351;-71
2022/05/02 02:42:54;;;;;;;58.30;31.20;;;;;;;8.92;64.52;98842.73;108346;1274;22543;-71
2022/05/02 02:45:22;;;;;;;66.20;36.90;;;;;;;8.96;64.63;98844.79;108342;1274;22545;-71
2022/05/02 02:47:49;;;;;;;72.50;41.40;;;;;;;8.99;65.18;98848.09;108347;1273;22575;-71
2022/05/02 02:50:16;;;;;;;71.30;40.80;;;;;;;8.99;65.67;98847.58;108320;1274;22798;-71
2022/05/02 02:52:43;;;;;;;97.00;52.60;;;;;;;8.97;65.83;98842.45;108336;1274;22617;-70
2022/05/02 02:55:10;;;;;;;89.80;46.80;;;;;;;8.96;65.75;98843.20;108058;1274;274453;-70
2022/05/02 02:57:37;;;;;;;71.80;43.20;;;;;;;8.96;65.56;98843.08;108319;1274;22544;-70
2022/05/02 03:00:07;;;;;;;67.80;39.10;;;;;;;8.94;65.39;98840.25;108296;1273;22564;-73
2022/05/02 03:02:40;;;;;;;58.70;35.10;;;;;;;8.90;65.57;98840.23;108446;1274;22542;-71
2022/05/02 03:07:55;;;;;;;47.10;29.70;;;;;;;8.85;65.23;98839.48;108365;1274;22522;-72
2022/05/02 03:10:22;;;;;;;41.80;27.20;;;;;;;8.88;65.61;98836.55;108354;1274;22571;-73
2022/05/02 03:12:49;;;;;;;48.50;30.50;;;;;;;8.88;65.99;98837.92;108338;1274;25334;-71
2022/05/02 03:15:17;;;;;;;48.60;30.40;;;;;;;8.86;66.24;98834.39;108335;1273;25314;-70
2022/05/02 03:17:43;;;;;;;48.40;30.80;;;;;;;8.85;65.77;98836.01;108357;1274;22705;-71
2022/05/02 03:20:11;;;;;;;54.10;31.50;;;;;;;8.84;66.05;98838.00;108366;1271;27601;-72
2022/05/02 03:22:38;;;;;;;51.40;30.80;;;;;;;8.83;65.80;98834.94;108498;1271;22661;-71
2022/05/02 03:25:06;;;;;;;53.10;32.40;;;;;;;8.81;65.69;98832.08;108475;1271;22525;-72
2022/05/02 03:27:33;;;;;;;55.50;31.10;;;;;;;8.82;66.18;98833.58;108359;1270;22557;-70
2022/05/02 03:30:00;;;;;;;47.10;27.10;;;;;;;8.87;66.50;98831.95;108337;1269;22694;-71
2022/05/02 03:32:27;;;;;;;41.90;26.70;;;;;;;8.89;67.14;98829.57;108356;1271;22616;-70
2022/05/02 03:34:54;;;;;;;53.10;30.80;;;;;;;8.90;67.65;98828.77;108353;1270;22525;-70
2022/05/02 03:37:22;;;;;;;50.40;30.80;;;;;;;8.89;67.36;98830.23;108355;1271;24424;-71
2022/05/02 03:39:49;;;;;;;52.90;30.70;;;;;;;8.89;67.48;98830.61;108334;1270;22541;-71
2022/05/02 03:42:16;;;;;;;53.70;32.00;;;;;;;8.88;66.78;98828.54;108355;1271;22522;-71
2022/05/02 03:44:43;;;;;;;51.40;32.00;;;;;;;8.88;66.87;98827.70;108357;1271;22674;-71
2022/05/02 03:47:10;;;;;;;53.70;32.50;;;;;;;8.88;66.64;98828.55;108372;1271;24316;-71
2022/05/02 03:49:37;;;;;;;46.10;29.10;;;;;;;8.89;66.41;98828.84;108366;1271;22626;-71
2022/05/02 03:52:05;;;;;;;41.70;26.20;;;;;;;8.94;66.70;98825.13;108352;1271;22713;-71
2022/05/02 03:54:32;;;;;;;43.60;28.20;;;;;;;8.99;67.01;98832.14;108532;1271;23277;-71
2022/05/02 03:57:00;;;;;;;55.80;33.60;;;;;;;9.03;67.26;98834.87;108359;1270;22652;-71
2022/05/02 03:59:27;;;;;;;65.80;39.50;;;;;;;9.04;67.57;98834.94;108353;1271;24453;-71
2022/05/02 04:01:54;;;;;;;58.40;36.70;;;;;;;9.07;66.86;98833.58;108348;1271;22694;-74
2022/05/02 04:04:21;;;;;;;56.90;34.80;;;;;;;9.10;66.74;98832.73;108339;1271;22535;-72
2022/05/02 04:06:48;;;;;;;54.60;34.00;;;;;;;9.14;66.39;98830.95;108342;1271;26740;-71
2022/05/02 04:09:15;;;;;;;60.80;34.90;;;;;;;9.17;66.27;98834.09;108361;1271;23911;-71
2022/05/02 04:11:42;;;;;;;61.80;35.90;;;;;;;9.20;66.02;98833.90;108339;1270;22650;-71
2022/05/02 04:14:09;;;;;;;65.40;38.20;;;;;;;9.24;65.88;98832.77;108353;1271;22540;-76
2022/05/02 04:16:36;;;;;;;61.70;36.30;;;;;;;9.27;65.94;98831.05;108337;1270;22617;-77
2022/05/02 04:19:03;;;;;;;50.40;30.60;;;;;;;9.31;65.73;98831.16;108342;1271;22547;-71
2022/05/02 04:21:30;;;;;;;47.00;29.40;;;;;;;9.39;66.07;98835.06;108351;1271;23170;-71
2022/05/02 04:23:57;;;;;;;52.80;30.50;;;;;;;9.42;66.38;98835.40;108365;1271;22557;-71
2022/05/02 04:26:25;;;;;;;60.30;33.40;;;;;;;9.45;66.95;98840.84;108355;1271;22574;-71
2022/05/02 04:28:52;;;;;;;56.60;35.10;;;;;;;9.46;67.11;98843.05;108513;1270;22549;-71
2022/05/02 04:31:19;;;;;;;74.60;39.60;;;;;;;9.46;66.77;98841.80;108355;1271;22530;-71
2022/05/02 04:33:46;;;;;;;84.40;43.30;;;;;;;9.47;66.68;98843.84;108380;1271;23472;-70
2022/05/02 04:36:13;;;;;;;101.60;49.40;;;;;;;9.49;66.53;98839.69;108350;1271;22537;-70
2022/05/02 04:38:40;;;;;;;147.80;64.10;;;;;;;9.52;66.75;98843.20;108359;1271;23520;-70
2022/05/02 04:41:07;;;;;;;157.70;69.10;;;;;;;9.55;67.29;98842.34;108346;1271;22575;-70
2022/05/02 04:43:34;;;;;;;59.60;33.20;;;;;;;9.60;66.80;98844.95;108343;1271;22576;-71
2022/05/02 04:46:01;;;;;;;56.40;30.50;;;;;;;9.71;66.52;98841.56;108361;1271;25293;-70
2022/05/02 04:48:28;;;;;;;54.50;32.20;;;;;;;9.80;66.64;98843.83;108370;1270;22585;-70
2022/05/02 04:50:55;;;;;;;54.90;33.50;;;;;;;9.85;66.84;98846.66;108333;1271;23128;-70
2022/05/02 04:53:22;;;;;;;50.30;32.80;;;;;;;9.91;66.56;98845.77;108373;1269;22648;-71
2022/05/02 04:55:49;;;;;;;56.50;35.00;;;;;;;9.98;66.12;98846.92;108351;1271;22715;-70
2022/05/02 04:58:16;;;;;;;54.80;33.90;;;;;;;10.10;65.99;98845.33;108373;1270;22568;-70
2022/05/02 05:00:44;;;;;;;67.50;37.40;;;;;;;10.31;65.76;98847.73;108387;1271;22602;-73
2022/05/02 05:03:11;;;;;;;88.80;47.10;;;;;;;10.54;65.42;98845.63;108355;1271;24072;-72
2022/05/02 05:05:38;;;;;;;66.90;39.30;;;;;;;10.77;65.23;98849.45;108322;1271;22616;-71
2022/05/02 05:08:05;;;;;;;52.60;32.50;;;;;;;11.01;64.57;98849.50;108356;1271;22553;-71
2022/05/02 05:10:42;;;;;;;44.50;31.20;;;;;;;11.23;64.27;98855.75;108348;1271;24265;-71
2022/05/02 05:13:17;;;;;;;44.00;29.90;;;;;;;11.45;63.75;98855.14;108331;1271;22557;-74
2022/05/02 05:16:21;;;;;;;44.50;30.90;;;;;;;11.67;63.01;98853.02;108356;1271;24491;-72
2022/05/02 05:18:50;;;;;;;42.70;28.10;;;;;;;11.96;62.32;98853.71;108349;1271;22698;-71
2022/05/02 05:21:20;;;;;;;43.40;27.60;;;;;;;12.18;61.69;98851.91;108336;1271;22532;-79
2022/05/02 05:24:00;;;;;;;36.90;25.60;;;;;;;12.44;60.82;98855.84;108351;1271;22542;-80
2022/05/02 05:26:48;;;;;;;40.20;27.10;;;;;;;12.73;60.27;98851.86;108364;1271;22735;-71
2022/05/02 05:29:34;;;;;;;42.00;26.80;;;;;;;13.01;59.46;98852.30;108356;1270;22719;-70
2022/05/02 05:32:12;;;;;;;45.40;28.10;;;;;;;13.27;59.30;98847.33;108325;1271;22696;-71
2022/05/02 05:34:48;;;;;;;42.00;26.50;;;;;;;13.49;58.50;98846.92;108327;1271;25653;-71
2022/05/02 05:37:53;;;;;;;36.50;23.40;;;;;;;13.70;57.95;98846.60;108335;1271;22603;-73
2022/05/02 05:40:42;;;;;;;37.90;24.80;;;;;;;13.96;56.91;98842.06;108336;1270;24293;-71
2022/05/02 05:43:23;;;;;;;32.60;21.80;;;;;;;14.17;56.49;98840.19;108363;1268;22544;-71
2022/05/02 05:46:11;;;;;;;27.80;19.10;;;;;;;14.39;56.10;98838.71;108772;1271;22707;-71
2022/05/02 05:49:00;;;;;;;27.90;18.80;;;;;;;14.58;54.14;98835.65;108389;1271;22656;-72
2022/05/02 05:51:37;;;;;;;26.80;17.60;;;;;;;14.77;53.50;98837.13;108538;1271;22546;-71
2022/05/02 05:54:29;;;;;;;25.80;17.90;;;;;;;14.94;52.53;98837.89;108399;1271;22551;-70
2022/05/02 05:57:15;;;;;;;30.70;17.80;;;;;;;15.13;52.14;98838.64;108371;1271;22588;-73
2022/05/02 06:00:12;;;;;;;21.90;17.00;;;;;;;15.26;51.18;98841.10;108388;1271;22558;-72
2022/05/02 06:02:53;;;;;;;24.50;16.50;;;;;;;15.29;50.14;98836.62;108372;1271;22670;-73
2022/05/02 06:05:21;;;;;;;24.00;16.00;;;;;;;15.33;50.18;98831.52;108379;1271;23192;-74
2022/05/02 06:07:50;;;;;;;21.90;15.90;;;;;;;15.37;49.48;98832.79;108354;1271;22654;-81
2022/05/02 06:10:18;;;;;;;22.10;15.60;;;;;;;15.46;49.38;98832.98;108349;1271;22564;-72
2022/05/02 06:12:46;;;;;;;23.20;15.00;;;;;;;15.56;48.67;98830.09;108381;1271;24353;-72
2022/05/02 06:20:52;;;;;;;23.10;15.90;;;;;;;15.86;47.44;98825.30;108359;1270;25304;-71
2022/05/02 06:23:22;;;;;;;23.50;16.10;;;;;;;15.97;47.29;98831.02;108365;1270;24265;-71
2022/05/02 06:25:50;;;;;;;26.00;16.50;;;;;;;16.01;46.83;98830.48;108483;1271;25461;-74
2022/05/02 06:28:22;;;;;;;25.20;16.90;;;;;;;16.09;46.72;98834.74;108358;1271;23986;-74
2022/05/02 06:30:53;;;;;;;23.10;16.90;;;;;;;16.19;46.48;98832.20;108329;1271;22531;-70
2022/05/02 06:33:23;;;;;;;24.60;15.40;;;;;;;16.24;46.22;98830.48;108591;1271;22682;-74
2022/05/02 06:36:09;;;;;;;24.50;15.20;;;;;;;16.27;45.35;98831.14;108357;1271;22635;-73
2022/05/02 06:38:42;;;;;;;21.70;15.00;;;;;;;16.34;45.17;98831.89;108363;1271;22538;-72
2022/05/02 06:41:23;;;;;;;26.90;14.30;;;;;;;16.41;44.26;98832.55;108323;1271;22540;-74
2022/05/02 06:44:07;;;;;;;24.70;14.70;;;;;;;16.48;43.99;98833.98;108387;1271;22617;-86
2022/05/02 06:46:42;;;;;;;20.20;13.60;;;;;;;16.59;43.73;98834.36;108398;1271;22610;-73
2022/05/02 06:49:12;;;;;;;25.40;15.20;;;;;;;16.67;43.97;98835.42;108338;1271;22517;-72
2022/05/02 06:51:42;;;;;;;24.30;13.40;;;;;;;16.77;43.74;98835.05;108339;1271;22535;-75
2022/05/02 06:54:55;;;;;;;22.20;13.80;;;;;;;16.87;43.34;98836.80;108323;1271;22670;-70
2022/05/02 06:57:49;;;;;;;19.30;12.50;;;;;;;16.97;42.62;98836.95;108484;1271;22604;-71
2022/05/02 07:00:18;;;;;;;18.60;12.90;;;;;;;17.05;42.47;98836.45;108444;1268;22692;-74
2022/05/02 07:02:51;;;;;;;20.90;14.70;;;;;;;17.12;42.02;98836.36;108478;1270;22525;-72
2022/05/02 07:05:18;;;;;;;;;;;;;;;17.21;42.17;98838.38;108541;1271;22546;-75
2022/05/02 07:07:53;;;;;;;18.00;13.30;;;;;;;17.25;42.15;98838.02;108583;1270;22688;-73
2022/05/02 07:10:23;;;;;;;23.20;13.70;;;;;;;17.34;42.00;98838.77;108586;1269;22536;-73
2022/05/02 07:13:03;;;;;;;27.30;14.70;;;;;;;17.41;41.55;98839.05;108554;1270;22610;-76
2022/05/02 07:16:05;;;;;;;19.40;13.50;;;;;;;17.38;41.34;98835.61;108573;1271;24230;-79
2022/05/02 07:19:00;;;;;;;21.30;14.20;;;;;;;17.47;42.07;98833.35;108323;1277;24205;-74
2022/05/02 07:21:46;;;;;;;23.20;15.10;;;;;;;17.60;42.13;98836.27;108288;1277;22564;-77
2022/05/02 07:24:31;;;;;;;20.60;13.30;;;;;;;17.71;41.12;98837.02;108308;1277;22531;-74
2022/05/02 07:27:14;;;;;;;21.70;13.90;;;;;;;17.76;40.38;98838.17;108382;1277;24444;-71
2022/05/02 07:29:43;;;;;;;19.80;14.60;;;;;;;17.76;40.56;98835.39;108377;1277;25366;-75
2022/05/02 07:32:13;;;;;;;22.30;14.40;;;;;;;17.83;40.49;98835.75;108284;1277;22535;-80
2022/05/02 07:34:43;;;;;;;27.70;16.00;;;;;;;17.95;40.40;98839.90;108285;1277;22531;-72
2022/05/02 07:37:14;;;;;;;20.40;14.00;;;;;;;18.09;39.70;98836.89;108283;1277;22627;-72
2022/05/02 07:39:43;;;;;;;17.30;13.10;;;;;;;18.23;39.90;98840.08;108295;1277;22607;-70
2022/05/02 07:42:12;;;;;;;14.80;12.00;;;;;;;18.33;38.52;98839.70;108289;1277;22690;-76
2022/05/02 07:44:43;;;;;;;18.10;13.60;;;;;;;18.36;37.41;98837.31;108267;1277;22561;-87
2022/05/02 07:47:13;;;;;;;19.90;13.70;;;;;;;18.38;37.65;98842.60;108298;1277;22600;-78
2022/05/02 07:49:46;;;;;;;17.80;12.70;;;;;;;18.45;37.58;98838.83;108285;1280;22697;-73
2022/05/02 07:52:20;;;;;;;17.80;11.00;;;;;;;18.51;37.41;98840.11;108311;1277;22527;-78
2022/05/02 07:54:49;;;;;;;17.10;11.20;;;;;;;18.56;35.91;98841.95;108497;1271;22544;-77
2022/05/02 07:57:16;;;;;;;21.40;13.40;;;;;;;18.53;35.37;98839.56;108616;1271;22604;-71
2022/05/02 07:59:46;;;;;;;19.70;13.40;;;;;;;18.52;35.27;98840.02;108657;1271;22551;-80
2022/05/02 08:02:16;;;;;;;18.80;12.30;;;;;;;18.49;35.04;98831.83;108594;1271;22528;-72
2022/05/02 08:04:44;;;;;;;16.10;11.80;;;;;;;18.56;35.63;98833.52;108561;1271;22534;-75
2022/05/02 08:07:26;;;;;;;12.90;10.30;;;;;;;18.61;34.79;98836.54;108595;1271;25537;-81
2022/05/02 08:10:21;;;;;;;15.40;9.70;;;;;;;18.67;34.82;98836.16;108563;1271;22518;-73
2022/05/02 08:12:55;;;;;;;17.10;9.00;;;;;;;18.76;34.62;98836.56;108564;1270;22557;-73
2022/05/02 08:15:32;;;;;;;14.30;9.60;;;;;;;18.83;34.14;98834.05;108586;1271;22601;-72
2022/05/02 08:18:05;;;;;;;11.90;8.40;;;;;;;18.91;34.37;98835.65;108594;1271;22534;-86
2022/05/02 08:20:39;;;;;;;16.40;9.30;;;;;;;19.00;33.97;98837.18;108559;1271;22541;-74
2022/05/02 08:29:29;;;;;;;10.30;7.30;;;;;;;19.29;32.97;98832.78;108527;1274;22595;-76
2022/05/02 08:32:02;;;;;;;8.80;7.00;;;;;;;19.34;33.02;98833.48;108521;1274;22535;-75
2022/05/02 08:34:38;;;;;;;10.50;6.90;;;;;;;19.42;32.92;98829.58;108513;1273;22527;-77
2022/05/02 08:37:29;;;;;;;8.70;6.80;;;;;;;19.52;32.97;98827.75;108527;1273;23205;-83
2022/05/02 08:40:27;;;;;;;10.10;6.70;;;;;;;19.57;32.52;98826.00;108516;1274;22655;-75
2022/05/02 08:43:28;;;;;;;11.30;6.70;;;;;;;19.60;31.74;98823.53;108487;1274;24221;-72
2022/05/02 08:46:23;;;;;;;9.30;6.30;;;;;;;19.64;32.52;98818.70;108468;1274;22555;-72
2022/05/02 08:52:18;;;;;;;8.90;6.10;;;;;;;19.69;31.37;98817.02;108520;1272;22620;-82
2022/05/02 08:55:07;;;;;;;8.80;6.00;;;;;;;19.72;30.94;98812.67;108503;1274;25313;-74
2022/05/02 08:58:05;;;;;;;9.20;6.30;;;;;;;19.67;30.44;98815.07;108510;1274;22618;-73
2022/05/02 09:00:56;;;;;;;10.30;6.00;;;;;;;19.72;30.66;98809.45;108497;1274;22604;-80
2022/05/02 09:04:00;;;;;;;9.10;6.10;;;;;;;19.68;30.36;98801.35;108485;1274;22688;-82
2022/05/02 09:07:09;;;;;;;10.20;6.20;;;;;;;19.77;30.20;98800.16;108499;1274;22604;-72
2022/05/02 09:10:04;;;;;;;10.30;5.90;;;;;;;19.86;29.95;98795.48;108505;1274;22538;-83
2022/05/02 09:13:02;;;;;;;10.20;6.30;;;;;;;19.92;30.13;98795.98;108501;1274;22652;-76
2022/05/02 09:16:00;;;;;;;9.50;5.90;;;;;;;19.96;30.42;98797.18;108491;1274;22538;-76
2022/05/02 09:19:03;;;;;;;8.30;5.90;;;;;;;19.99;29.71;98795.45;108489;1273;22543;-72
2022/05/02 09:22:07;;;;;;;10.40;6.10;;;;;;;20.04;30.58;98794.33;108479;1274;22652;-71
2022/05/02 09:24:53;;;;;;;8.60;6.00;;;;;;;20.21;30.41;98788.57;108499;1274;22525;-71
2022/05/02 09:27:53;;;;;;;9.60;6.10;;;;;;;20.38;29.30;98786.51;108497;1273;22557;-87
2022/05/02 09:30:42;;;;;;;10.20;6.50;;;;;;;20.57;29.21;98783.79;108497;1272;22537;-87
2022/05/02 09:33:27;;;;;;;9.50;6.00;;;;;;;20.72;28.46;98785.38;108489;1274;22534;-71
2022/05/02 09:36:08;;;;;;;8.90;5.70;;;;;;;20.78;28.64;98781.77;108500;1274;22540;-72
2022/05/02 09:39:12;;;;;;;9.80;6.60;;;;;;;20.97;28.82;98781.33;108506;1274;22554;-72
2022/05/02 09:42:08;;;;;;;10.60;6.80;;;;;;;21.26;28.56;98781.64;108508;1273;22525;-72
2022/05/02 09:50:38;;;;;;;7.60;6.10;;;;;;;21.67;28.34;98770.80;108505;1274;22545;-76
2022/05/02 09:53:35;;;;;;;10.10;5.40;;;;;;;21.69;28.05;98773.30;108514;1274;22609;-72
2022/05/02 09:56:38;;;;;;;8.90;6.60;;;;;;;21.52;27.78;98773.36;108498;1273;22646;-74
2022/05/02 09:59:20;;;;;;;8.60;6.10;;;;;;;21.36;27.73;98769.46;108507;1274;22578;-77
2022/05/02 10:01:49;;;;;;;8.70;6.00;;;;;;;21.36;28.11;98768.67;108477;1274;22533;-71
2022/05/02 10:04:59;;;;;;;9.50;6.40;;;;;;;21.25;27.94;98764.94;108513;1274;22525;-71
2022/05/02 10:07:27;;;;;;;8.30;6.40;;;;;;;21.27;27.94;98767.36;108260;1278;22538;-78
2022/05/02 10:10:03;;;;;;;12.80;7.40;;;;;;;21.34;28.06;98763.05;108293;1280;24207;-72
2022/05/02 10:12:48;;;;;;;14.10;9.00;;;;;;;21.35;27.76;98760.52;108289;1280;22534;-72
2022/05/02 10:15:54;;;;;;;18.00;9.40;;;;;;;21.34;27.89;98756.15;108260;1280;22522;-72
2022/05/02 10:18:44;;;;;;;13.00;8.50;;;;;;;21.45;27.93;98757.69;108148;1279;22534;-76
2022/05/02 10:21:29;;;;;;;11.80;7.40;;;;;;;21.57;27.63;98753.85;108234;1279;25582;-78
2022/05/02 10:24:21;;;;;;;10.60;7.60;;;;;;;21.67;27.59;98745.84;108219;1279;25335;-72
2022/05/02 10:26:56;;;;;;;14.30;8.60;;;;;;;21.80;27.60;98740.52;108224;1279;22512;-73
2022/05/02 10:29:44;;;;;;;13.90;9.50;;;;;;;21.91;27.87;98739.12;108224;1279;22526;-73
2022/05/02 10:32:36;;;;;;;17.80;10.70;;;;;;;22.01;27.56;98735.18;108250;1279;22540;-74
2022/05/02 10:35:03;;;;;;;13.30;8.50;;;;;;;22.11;28.14;98730.59;108219;1279;22705;-72
2022/05/02 10:37:35;;;;;;;12.40;7.20;;;;;;;22.16;27.31;98728.95;108221;1279;22526;-82
2022/05/02 10:40:12;;;;;;;13.40;7.00;;;;;;;22.17;26.94;98727.52;108224;1279;22701;-80
2022/05/02 10:42:50;;;;;;;10.00;6.50;;;;;;;22.16;27.15;98723.27;108218;1279;22615;-73
2022/05/02 10:45:18;;;;;;;11.20;6.10;;;;;;;21.99;26.81;98722.60;108493;1274;22533;-71
2022/05/02 10:47:56;;;;;;;8.80;5.60;;;;;;;21.90;27.08;98723.30;108501;1273;22608;-71
2022/05/02 10:50:33;;;;;;;8.90;6.80;;;;;;;21.95;27.52;98717.60;108485;1274;22537;-74
2022/05/02 10:53:08;;;;;;;10.70;6.00;;;;;;;21.94;26.39;98711.58;108485;1274;22610;-75
2022/05/02 10:55:45;;;;;;;9.20;6.20;;;;;;;22.06;27.65;98709.60;108474;1274;22540;-76
2022/05/02 10:58:12;;;;;;;11.60;6.80;;;;;;;22.26;27.54;98710.59;108505;1272;22632;-73
2022/05/02 11:01:10;;;;;;;10.40;6.60;;;;;;;22.36;26.98;98711.38;108539;1274;22696;-76
2022/05/02 11:04:04;;;;;;;10.80;6.20;;;;;;;22.48;27.14;98711.51;108324;1277;22605;-73
2022/05/02 11:07:08;;;;;;;10.20;6.60;;;;;;;22.59;26.96;98708.39;108317;1277;25254;-72
2022/05/02 11:09:44;;;;;;;10.90;6.10;;;;;;;22.72;26.51;98708.83;108285;1277;22613;-72
2022/05/02 11:12:15;;;;;;;10.00;6.10;;;;;;;22.80;26.46;98702.49;108306;1277;22882;-88
2022/05/02 11:15:07;;;;;;;11.90;7.00;;;;;;;22.86;25.66;98703.26;108303;1277;22534;-72
2022/05/02 11:17:47;;;;;;;9.90;6.60;;;;;;;22.83;25.79;98697.70;108277;1277;22718;-74
2022/05/02 11:20:42;;;;;;;10.10;6.70;;;;;;;22.85;25.79;98697.12;108269;1277;23386;-79
2022/05/02 11:23:28;;;;;;;16.70;10.50;;;;;;;22.87;25.45;98694.82;108289;1277;22542;-77
2022/05/02 11:26:09;;;;;;;14.70;9.80;;;;;;;23.04;25.93;98696.04;108325;1277;22566;-73
2022/05/02 11:29:17;;;;;;;9.90;6.80;;;;;;;23.24;25.41;98692.02;108357;1277;23199;-79
2022/05/02 11:32:01;;;;;;;7.10;5.70;;;;;;;23.38;24.62;98686.52;108208;1277;22532;-74
2022/05/02 11:34:36;;;;;;;10.20;6.60;;;;;;;23.40;24.70;98682.05;108311;1277;22528;-89
2022/05/02 11:37:08;;;;;;;9.30;6.90;;;;;;;23.11;24.74;98684.98;108304;1277;22617;-77
2022/05/02 11:39:59;;;;;;;13.00;7.90;;;;;;;22.94;24.90;98683.15;108259;1277;22568;-76
2022/05/02 11:42:32;;;;;;;10.80;6.70;;;;;;;22.85;25.45;98680.29;108467;1274;25998;-73
2022/05/02 11:45:11;;;;;;;11.90;7.90;;;;;;;22.80;25.13;98679.09;108486;1274;25722;-77
2022/05/02 11:48:15;;;;;;;14.40;8.20;;;;;;;22.70;25.44;98678.75;108512;1274;24326;-87
2022/05/02 11:50:44;;;;;;;12.70;8.90;;;;;;;22.56;26.02;98679.66;108489;1274;22537;-73
2022/05/02 11:53:14;;;;;;;9.30;6.00;;;;;;;22.48;25.73;98677.87;108499;1274;24240;-88
2022/05/02 11:55:43;;;;;;;11.30;7.80;;;;;;;22.30;25.84;98673.63;108535;1274;22543;-70
2022/05/02 11:58:25;;;;;;;10.40;6.10;;;;;;;22.23;26.07;98675.38;108496;1274;22527;-82
2022/05/02 12:01:02;;;;;;;14.10;8.20;;;;;;;22.15;25.55;98671.16;108369;1274;22668;-79
2022/05/02 12:03:51;;;;;;;9.70;6.90;;;;;;;22.02;26.18;98669.77;108303;1274;22716;-72
2022/05/02 12:06:29;;;;;;;11.80;5.80;;;;;;;22.10;25.96;98669.08;108297;1271;22546;-73
2022/05/02 12:08:59;;;;;;;12.80;6.10;;;;;;;22.14;25.97;98668.84;108459;1271;22526;-72
2022/05/02 12:11:26;;;;;;;10.00;6.20;;;;;;;22.16;25.51;98665.64;108322;1274;22538;-71
2022/05/02 12:13:55;;;;;;;11.80;7.20;;;;;;;22.21;25.93;98666.27;108290;1274;23114;-72
2022/05/02 12:16:22;;;;;;;9.20;5.90;;;;;;;22.33;25.71;98666.70;108317;1274;22606;-72
2022/05/02 12:18:54;;;;;;;8.90;6.30;;;;;;;22.43;25.48;98658.04;108275;1273;24256;-72
2022/05/02 12:21:31;;;;;;;10.80;6.60;;;;;;;22.57;25.50;98650.11;108364;1271;22545;-71